FW1529 Weather Reports


time (UTC)temp
C
wind
direction
speed
KPH
gust
KPH
rain 1hr
cm
rain 24hr
cm
rain mn
cm
humidity
%
barometer
mb
20200229072317 16 22 3.2 4.8 0.00 0.00 0.00 48 1007.7
20200229071317 16 22 4.8 6.4 0.00 0.00 0.00 50 1007.8
20200229070316 15 67 3.2 4.8 0.00 0.00 0.00 58 1007.9
20200229065817 15 0.0 0.0 0.00 0.00 0.00 59 1008.1
20200229064817 15 0.0 0.0 0.00 0.00 0.00 61 1008.1
20200229063817 15 0.0 0.0 0.00 0.00 0.00 54 1007.9
20200229062817 16 67 3.2 3.2 0.00 0.00 0.00 56 1008.0
20200229061817 16 90 4.8 6.4 0.00 0.00 0.00 50 1007.9
20200229060817 16 90 4.8 4.8 0.00 0.00 0.00 53 1007.9
20200229055817 16 90 4.8 6.4 0.00 0.00 0.00 47 1008.0
20200229054817 15 90 3.2 4.8 0.00 0.00 0.00 56 1008.1
20200229053817 15 90 3.2 4.8 0.00 0.00 0.00 56 1008.2
20200229052816 15 90 1.6 3.2 0.00 0.00 0.00 58 1008.3
20200229051817 16 90 3.2 4.8 0.00 0.00 0.00 60 1008.4
20200229050817 16 0.0 0.0 0.00 0.00 0.00 52 1008.3
20200229045817 16 90 1.6 3.2 0.00 0.00 0.00 57 1008.1
20200229044817 16 90 1.6 3.2 0.00 0.00 0.00 58 1008.1
20200229043817 17 0.0 0.0 0.00 0.00 0.00 50 1008.1
20200229042817 17 90 1.6 1.6 0.00 0.00 0.00 50 1008.1
20200229041818 17 90 4.8 6.4 0.00 0.00 0.00 49 1007.8
20200229040817 17 112 4.8 6.4 0.00 0.00 0.00 51 1008.0
20200229035817 18 45 3.2 4.8 0.00 0.00 0.00 55 1008.2
20200229034817 18 45 4.8 6.4 0.00 0.00 0.00 57 1008.0
20200229033817 18 0.0 0.0 0.00 0.00 0.00 46 1008.6
20200229032817 18 337 1.6 3.2 0.00 0.00 0.00 52 1008.3
20200229031817 18 337 4.8 4.8 0.00 0.00 0.00 52 1008.4
20200229030816 18 0 3.2 4.8 0.00 0.00 0.00 58 1007.8
20200229025817 19 0.0 0.0 0.00 0.00 0.00 47 1007.5
20200229024817 20 0.0 0.0 0.00 0.00 0.00 50 1007.2
20200229023817 20 0.0 0.0 0.00 0.00 0.00 51 1006.9
20200229022817 21 0.0 0.0 0.00 0.00 0.00 47 1007.0
20200229021816 22 0.0 1.6 0.00 0.00 0.00 35 1006.8
20200229020818 22 0 1.6 3.2 0.00 0.00 0.00 36 1007.0
20200229015817 21 337 6.4 8.0 0.00 0.00 0.00 35 1006.9
20200229014818 22 135 1.6 4.8 0.00 0.00 0.00 32 1007.1
20200229013817 23 157 4.8 6.4 0.00 0.00 0.00 30 1007.1
20200229012817 23 157 4.8 6.4 0.00 0.00 0.00 30 1007.1
20200229011817 24 157 1.6 6.4 0.00 0.00 0.00 27 1007.4
20200229010817 25 157 1.6 3.2 0.00 0.00 0.00 26 1007.3
20200229005817 25 157 3.2 8.0 0.00 0.00 0.00 25 1007.1
20200229004816 26 157 3.2 3.2 0.00 0.00 0.00 27 1007.1
20200229003816 26 180 1.6 4.8 0.00 0.00 0.00 25 1007.2
20200229002817 27 180 4.8 9.7 0.00 0.00 0.00 21 1007.2
20200229001817 27 180 1.6 4.8 0.00 0.00 0.00 22 1007.0
20200229000816 27 180 6.4 9.7 0.00 0.00 0.00 20 1007.2
20200228235817 27 202 8.0 11.3 0.00 0.00 0.00 20 1007.0
20200228234817 27 202 8.0 9.7 0.00 0.00 0.00 21 1007.1
20200228233817 28 202 11.3 16.1 0.00 0.00 0.00 23 1006.9
20200228232817 29 180 6.4 11.3 0.00 0.00 0.00 22 1007.0
20200228231816 28 202 11.3 16.1 0.00 0.00 0.00 24 1006.7
20200228230816 28 202 14.5 16.1 0.00 0.00 0.00 21 1006.7
20200228225817 28 202 9.7 16.1 0.00 0.00 0.00 18 1006.9
20200228224816 28 202 12.9 17.7 0.00 0.00 0.00 17 1007.1
20200228223816 28 202 14.5 17.7 0.00 0.00 0.00 17 1007.2
20200228222816 28 202 14.5 16.1 0.00 0.00 0.00 17 1007.1
20200228221816 28 202 14.5 17.7 0.00 0.00 0.00 17 1007.0
20200228220817 28 202 16.1 24.1 0.00 0.00 0.00 16 1006.9
20200228215816 28 202 16.1 22.5 0.00 0.00 0.00 20 1007.0
20200228214816 28 315 11.3 16.1 0.00 0.00 0.00 25 1007.0
20200228213816 28 225 9.7 12.9 0.00 0.00 0.00 24 1007.0
20200228212816 28 225 11.3 14.5 0.00 0.00 0.00 23 1006.9
20200228211816 30 202 11.3 14.5 0.00 0.00 0.00 21 1006.8
20200228210816 30 180 1.6 8.0 0.00 0.00 0.00 15 1006.8
20200228205816 30 202 12.9 16.1 0.00 0.00 0.00 20 1006.7
20200228204816 30 225 6.4 9.7 0.00 0.00 0.00 22 1006.9
20200228203816 30 202 11.3 14.5 0.00 0.00 0.00 15 1007.0
20200228202816 29 247 8.0 11.3 0.00 0.00 0.00 22 1007.2
20200228201816 30 180 1.6 1.6 0.00 0.00 0.00 15 1007.4
20200228200816 29 247 4.8 6.4 0.00 0.00 0.00 22 1007.5
20200228195819 29 135 3.2 4.8 0.00 0.00 0.00 15 1007.5
20200228194816 29 202 3.2 4.8 0.00 0.00 0.00 16 1007.7
20200228193816 28 135 6.4 9.7 0.00 0.00 0.00 19 1007.9
20200228192816 28 225 3.2 4.8 0.00 0.00 0.00 21 1008.2
20200228191816 28 202 6.4 12.9 0.00 0.00 0.00 19 1008.4
20200228190816 28 0.0 1.6 0.00 0.00 0.00 18 1008.6
20200228185816 28 67 3.2 4.8 0.00 0.00 0.00 22 1008.8
20200228184816 27 180 3.2 4.8 0.00 0.00 0.00 21 1009.1
20200228183816 27 0.0 1.6 0.00 0.00 0.00 21 1009.4
20200228182816 26 0.0 1.6 0.00 0.00 0.00 23 1009.4
20200228181816 26 22 1.6 4.8 0.00 0.00 0.00 24 1009.5
20200228180816 25 337 1.6 3.2 0.00 0.00 0.00 22 1009.6
20200228175816 24 337 1.6 3.2 0.00 0.00 0.00 25 1009.5
20200228174816 24 315 3.2 4.8 0.00 0.00 0.00 24 1009.7
20200228173816 23 22 3.2 4.8 0.00 0.00 0.00 27 1009.9
20200228172816 22 0.0 0.0 0.00 0.00 0.00 26 1009.7
20200228171816 22 22 1.6 3.2 0.00 0.00 0.00 28 1009.7
20200228170816 22 22 3.2 4.8 0.00 0.00 0.00 35 1009.8
20200228165816 21 22 3.2 3.2 0.00 0.00 0.00 40 1009.6
20200228164816 21 22 1.6 3.2 0.00 0.00 0.00 45 1009.6
20200228163816 20 22 3.2 6.4 0.00 0.00 0.00 47 1009.5
20200228162816 19 45 4.8 6.4 0.00 0.00 0.00 50 1009.4
20200228161815 18 67 3.2 4.8 0.00 0.00 0.00 54 1009.3
20200228160816 18 90 4.8 6.4 0.00 0.00 0.00 54 1009.2
20200228155816 17 112 4.8 6.4 0.00 0.00 0.00 55 1009.3
20200228154815 17 90 3.2 4.8 0.00 0.00 0.00 61 1009.2
20200228153816 15 112 4.8 6.4 0.00 0.00 0.00 68 1009.2
20200228152816 14 0.0 0.0 0.00 0.00 0.00 74 1009.1
20200228151815 13 22 1.6 1.6 0.00 0.00 0.00 69 1009.0
20200228150816 13 0.0 0.0 0.00 0.00 0.00 71 1009.0
20200228145816 12 0 3.2 4.8 0.00 0.00 0.00 71 1008.8
20200228144816 12 0.0 1.6 0.00 0.00 0.00 74 1008.8
20200228143816 11 0.0 0.0 0.00 0.00 0.00 75 1008.6
20200228142816 11 0.0 1.6 0.00 0.00 0.00 72 1008.2
20200228141816 11 337 1.6 3.2 0.00 0.00 0.00 75 1008.2
20200228140816 11 337 1.6 3.2 0.00 0.00 0.00 76 1008.1
20200228135815 11 45 3.2 3.2 0.00 0.00 0.00 75 1008.0
20200228134815 11 45 3.2 3.2 0.00 0.00 0.00 75 1007.6
20200228133815 11 45 3.2 4.8 0.00 0.00 0.00 73 1007.3
20200228132815 11 45 3.2 3.2 0.00 0.00 0.00 72 1007.6
20200228131820 11 45 1.6 3.2 0.00 0.00 0.00 68 1007.7
20200228130815 11 45 3.2 4.8 0.00 0.00 0.00 64 1007.8
20200228125815 11 45 4.8 4.8 0.00 0.00 0.00 62 1007.7
20200228124815 11 0.0 0.0 0.00 0.00 0.00 60 1007.7
20200228123816 11 45 1.6 1.6 0.00 0.00 0.00 59 1007.7
20200228122816 12 0.0 1.6 0.00 0.00 0.00 59 1007.4
20200228121815 12 45 1.6 1.6 0.00 0.00 0.00 53 1007.5
20200228120815 11 45 3.2 4.8 0.00 0.00 0.00 51 1007.2
20200228115815 11 315 1.6 3.2 0.00 0.00 0.00 59 1007.3
20200228114815 11 0.0 1.6 0.00 0.00 0.00 61 1007.3
20200228113815 11 0.0 0.0 0.00 0.00 0.00 58 1007.3
20200228112815 11 0.0 0.0 0.00 0.00 0.00 58 1007.1
20200228111816 11 315 3.2 4.8 0.00 0.00 0.00 57 1006.7
20200228110816 11 0.0 1.6 0.00 0.00 0.00 55 1006.6
20200228105815 11 315 1.6 1.6 0.00 0.00 0.00 52 1006.4
20200228104815 11 315 1.6 3.2 0.00 0.00 0.00 47 1006.6
20200228103816 11 315 3.2 3.2 0.00 0.00 0.00 49 1006.5
20200228102815 13 315 4.8 6.4 0.00 0.00 0.00 43 1006.5
20200228101815 13 315 3.2 4.8 0.00 0.00 0.00 40 1006.3
20200228100816 13 315 4.8 6.4 0.00 0.00 0.00 40 1006.5
20200228095815 13 337 4.8 6.4 0.00 0.00 0.00 41 1006.6
20200228094815 14 0 4.8 6.4 0.00 0.00 0.00 39 1006.6
20200228093815 14 0 6.4 8.0 0.00 0.00 0.00 41 1006.5
20200228092815 14 0 4.8 6.4 0.00 0.00 0.00 43 1006.6
20200228091815 14 0 4.8 6.4 0.00 0.00 0.00 45 1006.6
20200228090817 13 337 6.4 6.4 0.00 0.00 0.00 46 1006.7
20200228085815 13 337 3.2 4.8 0.00 0.00 0.00 46 1006.7
20200228084815 12 337 3.2 4.8 0.00 0.00 0.00 47 1007.0
20200228083815 12 337 4.8 4.8 0.00 0.00 0.00 49 1007.2
20200228082816 12 337 4.8 6.4 0.00 0.00 0.00 49 1007.3
20200228081815 12 337 3.2 3.2 0.00 0.00 0.00 47 1007.4
20200228080817 12 337 4.8 6.4 0.00 0.00 0.00 46 1007.4
20200228075817 12 0 6.4 8.0 0.00 0.00 0.00 48 1007.4
20200228074817 12 22 3.2 3.2 0.00 0.00 0.00 54 1007.4
20200228073817 12 0 3.2 4.8 0.00 0.00 0.00 54 1007.5